Stations météo

réclame
Mon MeteoGroup
Chamonix, France (7469): Température de l'air & dewpoint: 22.05.2018 12:00:00 - 28.05.2018 12:00:00 (CEST)Chamonix, France (7469): Vitesse du vent & gusts: 22.05.2018 12:00:00 - 28.05.2018 12:00:00 (CEST)Chamonix, France (7469): Direction du vent: 22.05.2018 12:00:00 - 28.05.2018 12:00:00 (CEST)Chamonix, France (7469): Quantités de précipitations: 22.05.2018 12:00:00 - 28.05.2018 12:00:00 (CEST)
Date & Time tt [°C] td [°C] ff [km/h] ff [knt] fx [km/h] fx [knt] dd rr [mm]
28.05.2018 12:00:00 - - - - - - - -
28.05.2018 11:00:00 16,0 9,0 9 5 35 19 ENE 0,0
28.05.2018 10:00:00 15,6 8,6 11 6 44 24 NNE 0,0
28.05.2018 09:00:00 13,7 10,3 4 2 15 8 NE 0,0
28.05.2018 08:00:00 11,1 10,8 0 0 15 8 N -
28.05.2018 07:00:00 10,8 10,5 2 1 11 6 ESE 0,0
28.05.2018 06:00:00 10,8 10,3 0 0 5 3 N 0,2
28.05.2018 05:00:00 11,5 11,2 2 1 15 8 WSW 2,0
28.05.2018 04:00:00 11,5 10,7 8 4 21 11 NE 3,0
28.05.2018 03:00:00 11,4 10,8 2 1 8 4 ENE 1,0
28.05.2018 02:00:00 11,0 10,2 2 1 5 3 NNE -
28.05.2018 01:00:00 11,3 10,4 2 1 8 4 NNW 0,0
28.05.2018 00:00:00 11,9 10,5 0 0 5 3 N 0,0
27.05.2018 23:00:00 13,3 10,8 0 0 13 7 N 0,0
27.05.2018 22:00:00 12,9 10,8 2 1 5 3 E 0,0
27.05.2018 21:00:00 13,6 10,4 2 1 21 11 NNW 0,0
27.05.2018 20:00:00 14,7 10,9 8 4 28 15 WSW -
27.05.2018 19:00:00 18,9 11,9 4 2 18 10 ESE 0,0
27.05.2018 18:00:00 22,7 6,4 4 2 18 10 ENE 0,0
27.05.2018 17:00:00 24,3 8,7 8 4 22 12 NNE 0,0
27.05.2018 16:00:00 26,5 8,0 8 4 34 18 NNE 0,0
27.05.2018 15:00:00 25,9 7,0 11 6 29 16 NNE 0,0
27.05.2018 14:00:00 24,2 10,5 8 4 24 13 NNE -
27.05.2018 13:00:00 22,7 7,6 2 1 18 10 NNE 0,0
27.05.2018 12:00:00 20,7 7,7 5 3 21 11 NNE 0,0
27.05.2018 11:00:00 19,9 7,9 8 4 24 13 NNE 0,0
27.05.2018 10:00:00 17,7 9,6 4 2 16 9 ESE 0,0
27.05.2018 09:00:00 14,5 9,3 8 4 29 16 NNE 0,4
27.05.2018 08:00:00 12,7 9,5 0 0 8 4 N -
27.05.2018 07:00:00 12,4 8,3 0 0 9 5 N 0,0
27.05.2018 06:00:00 12,7 7,6 4 2 8 4 ENE 0,0
27.05.2018 05:00:00 13,2 6,8 2 1 9 5 E 0,0
27.05.2018 04:00:00 14,4 5,5 4 2 22 12 ESE 0,0
27.05.2018 03:00:00 15,9 6,6 8 4 28 15 NE 0,0
27.05.2018 02:00:00 16,0 7,0 5 3 26 14 NNE -
27.05.2018 01:00:00 16,4 7,1 8 4 35 19 N 0,0
27.05.2018 00:00:00 17,0 6,8 11 6 41 22 NNE 0,0
26.05.2018 23:00:00 16,6 7,8 8 4 34 18 NE 0,0
26.05.2018 22:00:00 17,2 8,3 9 5 44 24 NNE 0,0
26.05.2018 21:00:00 17,3 7,9 11 6 37 20 NE 0,0
26.05.2018 20:00:00 17,8 8,9 5 3 18 10 ENE -
26.05.2018 19:00:00 18,5 8,7 2 1 16 9 W 0,0
26.05.2018 18:00:00 16,7 11,0 5 3 16 9 ENE 0,0
26.05.2018 17:00:00 15,8 10,8 5 3 41 22 S 0,0
26.05.2018 16:00:00 20,5 9,7 5 3 21 11 S 0,0
26.05.2018 15:00:00 24,2 8,2 4 2 18 10 WSW 0,0
26.05.2018 14:00:00 23,2 8,8 9 5 24 13 WSW -
26.05.2018 13:00:00 22,1 9,3 9 5 22 12 SW 0,0
26.05.2018 12:00:00 21,9 8,0 9 5 22 12 WSW 0,0
26.05.2018 11:00:00 21,5 8,4 8 4 18 10 SW 0,0
26.05.2018 10:00:00 20,4 9,3 4 2 15 8 SSW 0,0
26.05.2018 09:00:00 14,4 11,4 0 0 5 3 N 0,0
26.05.2018 08:00:00 11,9 10,0 2 1 8 4 NNW -
26.05.2018 07:00:00 10,5 8,9 2 1 5 3 SSE 0,0
26.05.2018 06:00:00 9,3 8,1 0 0 5 3 N 0,0
26.05.2018 05:00:00 9,3 8,2 0 0 5 3 N 0,0
26.05.2018 04:00:00 8,9 7,7 0 0 5 3 N 0,0
26.05.2018 03:00:00 9,2 8,0 0 0 5 3 N 0,0
26.05.2018 02:00:00 8,7 7,6 0 0 4 2 N -
26.05.2018 01:00:00 9,5 8,1 0 0 8 4 N 0,0
26.05.2018 00:00:00 10,6 8,2 0 0 4 2 N 0,0
25.05.2018 23:00:00 12,0 9,0 0 0 8 4 N 0,0
25.05.2018 22:00:00 13,5 9,7 0 0 8 4 N 0,0
25.05.2018 21:00:00 15,8 10,1 2 1 8 4 E 0,0
25.05.2018 20:00:00 20,0 10,4 0 0 9 5 N -
25.05.2018 19:00:00 22,3 9,1 4 2 15 8 WSW 0,0
25.05.2018 18:00:00 23,8 7,8 4 2 22 12 SE 0,0
25.05.2018 17:00:00 23,2 6,0 9 5 22 12 W 0,0
25.05.2018 16:00:00 23,8 7,0 4 2 21 11 S 0,0
25.05.2018 15:00:00 23,3 6,6 8 4 18 10 SW 0,0
25.05.2018 14:00:00 24,1 5,9 4 2 15 8 S -
25.05.2018 13:00:00 22,1 6,3 8 4 15 8 WSW 0,0
25.05.2018 12:00:00 22,2 6,8 4 2 15 8 SW 0,0
25.05.2018 11:00:00 21,3 6,4 4 2 13 7 S 0,0
25.05.2018 10:00:00 16,8 7,7 2 1 8 4 SSE 0,0
25.05.2018 09:00:00 10,9 8,8 2 1 8 4 NE 0,0
25.05.2018 08:00:00 7,3 7,0 0 0 5 3 N -
25.05.2018 07:00:00 6,5 6,2 2 1 8 4 NE 0,0
25.05.2018 06:00:00 6,2 5,8 0 0 5 3 N 0,0
25.05.2018 05:00:00 6,3 5,7 0 0 4 2 N 0,0
25.05.2018 04:00:00 7,0 6,3 2 1 8 4 NE 0,0
25.05.2018 03:00:00 8,0 6,8 0 0 5 3 N 0,0
25.05.2018 02:00:00 9,3 7,2 0 0 4 2 N -
25.05.2018 01:00:00 10,5 7,7 0 0 4 2 N 0,0
25.05.2018 00:00:00 10,3 7,7 0 0 4 2 N 0,0
24.05.2018 23:00:00 9,9 7,0 0 0 4 2 N 0,0
24.05.2018 22:00:00 11,2 6,9 2 1 8 4 ENE 0,0
24.05.2018 21:00:00 13,6 8,0 0 0 4 2 N 0,0
24.05.2018 20:00:00 15,9 8,1 0 0 16 9 N -
24.05.2018 19:00:00 19,3 3,8 8 4 18 10 WNW 0,0
24.05.2018 18:00:00 22,1 2,7 4 2 21 11 W 0,0
24.05.2018 17:00:00 22,9 7,0 5 3 21 11 S 0,0
24.05.2018 16:00:00 23,1 5,9 8 4 21 11 SSW 0,0
24.05.2018 15:00:00 22,0 7,0 8 4 18 10 SW 0,0
24.05.2018 14:00:00 21,3 7,1 5 3 21 11 S -
24.05.2018 13:00:00 21,5 5,8 8 4 18 10 SSW 0,0
24.05.2018 12:00:00 19,9 6,6 4 2 15 8 S 0,0
24.05.2018 11:00:00 17,7 11,7 4 2 11 6 E 0,0
24.05.2018 10:00:00 12,7 11,8 2 1 5 3 S 0,0
24.05.2018 09:00:00 9,2 9,2 0 0 5 3 N 0,0
24.05.2018 08:00:00 5,7 5,6 0 0 4 2 N -
24.05.2018 07:00:00 5,7 5,6 0 0 4 2 N 0,0
24.05.2018 06:00:00 6,1 5,8 0 0 2 1 N 0,0
24.05.2018 05:00:00 7,0 6,7 0 0 4 2 N 0,0
24.05.2018 04:00:00 7,5 7,2 0 0 4 2 N 0,0
24.05.2018 03:00:00 8,4 8,1 0 0 4 2 N 0,0
24.05.2018 02:00:00 9,3 9,2 0 0 4 2 N -
24.05.2018 01:00:00 9,3 9,0 0 0 4 2 N 0,2
24.05.2018 00:00:00 9,6 9,3 0 0 2 1 N 0,0
23.05.2018 23:00:00 9,7 9,2 0 0 4 2 N 0,0
23.05.2018 22:00:00 10,3 9,7 0 0 4 2 N 0,0
23.05.2018 21:00:00 11,5 10,7 0 0 2 1 N 0,0
23.05.2018 20:00:00 11,7 10,8 0 0 9 5 N -
23.05.2018 19:00:00 12,3 10,9 5 3 18 10 WSW 0,0
23.05.2018 18:00:00 13,6 10,4 9 5 16 9 WSW 0,0
23.05.2018 17:00:00 14,2 10,2 8 4 15 8 WSW 0,0
23.05.2018 16:00:00 14,7 10,5 4 2 15 8 SSW 0,0
23.05.2018 15:00:00 14,9 10,5 2 1 9 5 S 0,0
23.05.2018 14:00:00 14,4 10,0 2 1 11 6 SSW -
23.05.2018 13:00:00 13,4 10,0 4 2 11 6 SSW 0,0
23.05.2018 12:00:00 13,2 9,6 5 3 13 7 SW 0,0
23.05.2018 11:00:00 14,5 9,9 5 3 13 7 WSW 0,0
23.05.2018 10:00:00 13,5 9,3 2 1 5 3 WSW 0,0
23.05.2018 09:00:00 12,4 9,8 4 2 8 4 W 0,0
23.05.2018 08:00:00 11,4 10,0 0 0 4 2 N -
23.05.2018 07:00:00 10,4 10,1 0 0 4 2 N 0,0
23.05.2018 06:00:00 10,3 10,0 0 0 2 1 N 0,0
23.05.2018 05:00:00 10,1 9,8 0 0 2 1 N 0,0
23.05.2018 04:00:00 10,1 9,8 0 0 2 1 N 0,0
23.05.2018 03:00:00 10,4 9,9 2 1 5 3 E 0,0
23.05.2018 02:00:00 10,9 10,6 0 0 0 0 N -
23.05.2018 01:00:00 11,0 10,5 0 0 2 1 N 0,2
23.05.2018 00:00:00 11,0 10,4 0 0 4 2 N 0,0
22.05.2018 23:00:00 11,4 10,5 0 0 9 5 N 0,2
22.05.2018 22:00:00 11,6 10,5 0 0 8 4 N 0,0
22.05.2018 21:00:00 11,4 10,0 0 0 5 3 N 0,0
22.05.2018 20:00:00 12,5 10,6 2 1 11 6 ENE -
22.05.2018 19:00:00 14,6 9,6 4 2 21 11 NE 0,0
22.05.2018 18:00:00 16,6 7,5 8 4 29 16 S 0,0
22.05.2018 17:00:00 20,7 7,3 8 4 24 13 SSW 0,0
22.05.2018 16:00:00 19,9 7,9 8 4 26 14 SSW 0,0
22.05.2018 15:00:00 21,1 7,3 8 4 21 11 SSW 0,0
22.05.2018 14:00:00 20,5 5,3 8 4 18 10 WSW -
22.05.2018 13:00:00 19,2 7,0 2 1 9 5 SW 0,0
22.05.2018 12:00:00 18,3 5,5 2 1 11 6 SSW 0,0

tt = Température de l'air
td = dewpoint
ff = Vitesse du vent
fx = gusts
dd = Direction du vent
rr = Quantités de précipitations

stations d'obs. à proximité